• Join FlightAware (Why Join?)
  • Login
  • US Flag 
06:43PM EDT


 

Airport Tracker/Info


-or-


 

Live Flight TrackerFlight Track Log ✈ ASQ4490 ✈ 01-May-2013 ✈ MMTC / TRC - KIAH

Flight Track Log - Related Links

Times and Time Zones

All times are in EDT time to prevent confusion due to time zone crossing. See the ASQ4490 flight status page for this flight to view local times or setup timezone preferences in your user account.

Time Position Orientation Groundspeed Altitude Reporting Facility
EDT Latitude Longitude Course Direction KTS MPH feet Rate Location/Type
10:46AM 25.7483 -100.1983 62° Northeast 497 572 26,900  Level Houston Center
10:47AM 25.8239 -100.0372 62° Northeast 497 572 26,900  Level Houston Center
10:48AM 25.9150 -99.9269 47° Northeast 491 565 26,900  Level Houston Center
10:50AM 26.0078 -99.8197 46° Northeast 486 559 26,900  Level Houston Center
10:51AM 26.0972 -99.7083 48° Northeast 485 558 26,900  Level Houston Center
10:52AM 26.1872 -99.5981 48° Northeast 482 555 26,900  Level Houston Center
10:53AM 26.2778 -99.4883 47° Northeast 483 556 26,900  Level Houston Center
10:54AM 26.3936 -99.3658 43° Northeast 483 556 26,900  Level Houston Center
10:55AM 26.4950 -99.2731 39° Northeast 478 550 26,900  Level Houston Center
10:56AM 26.5936 -99.1767 41° Northeast 474 545 26,900  Level Houston Center
10:57AM 26.6917 -99.0792 42° Northeast 473 544 26,900  Level Houston Center
10:58AM 26.7889 -98.9842 41° Northeast 469 540 26,900  Level Houston Center
10:59AM 26.9047 -98.8694 41° Northeast 466 536 26,900  Level Houston Center
11:00AM 27.0017 -98.7731 42° Northeast 468 539 26,900  Level Houston Center
11:01AM 27.0989 -98.6781 41° Northeast 468 539 26,900  Level Houston Center
11:02AM 27.1961 -98.5803 42° Northeast 471 542 26,900  Level Houston Center
11:03AM 27.2933 -98.4842 41° Northeast 471 542 26,900  Level Houston Center
11:04AM 27.4086 -98.3672 42° Northeast 469 540 26,900  Level Houston Center
11:05AM 27.5053 -98.2714 41° Northeast 467 537 26,900  Level Houston Center
11:06AM 27.6019 -98.1739 42° Northeast 467 537 26,900  Level Houston Center
11:07AM 27.6978 -98.0767 42° Northeast 467 537 26,900  Level Houston Center
11:08AM 27.7936 -97.9811 41° Northeast 463 533 26,900  Level Houston Center
11:09AM 27.9064 -97.8653 42° Northeast 458 527 26,900  Level Houston Center
11:10AM 28.0014 -97.7697 42° Northeast 458 527 26,900  Level Houston Center
11:11AM 28.0881 -97.6814 42° Northeast 457 526 26,900  Level Houston Center
11:12AM 28.1828 -97.5861 42° Northeast 456 525 26,900  Level Houston Center
11:13AM 28.2958 -97.4708 42° Northeast 454 522 26,900  Level Houston Center
11:14AM 28.3897 -97.3747 42° Northeast 455 524 26,900  Level Houston Center
11:15AM 28.4828 -97.2781 42° Northeast 455 524 26,900  Level Houston Center
11:16AM 28.5772 -97.1811 42° Northeast 456 525 26,900  Level Houston Center
11:17AM 28.6706 -97.0847 42° Northeast 456 525 26,900  Level Houston Center
11:18AM 28.7831 -96.9683 42° Northeast 457 526 26,900 -300 Level Houston Center
11:20AM 28.8756 -96.8719 42° Northeast 455 524 26,300 -1,200 Descending Houston Center
11:21AM 28.9667 -96.7764 43° Northeast 449 517 24,500 -2,040 Descending Houston Center
11:22AM 29.0550 -96.6839 42° Northeast 438 504 22,100 -2,340 Descending Houston Center
11:23AM 29.1414 -96.5942 42° Northeast 428 493 19,700 -2,520 Descending Houston Center
11:24AM 29.2403 -96.4889 43° Northeast 412 474 17,000 -2,460 Descending Houston Center
11:25AM 29.3069 -96.4208 42° Northeast 389 448 15,100 -2,280 Descending Houston Center
11:25AM 29.3378 -96.3886 42° Northeast 386 444 14,200 -2,100 Descending Houston Center
11:26AM 29.3964 -96.3256 43° Northeast 383 441 12,600 -1,860 Descending Houston Center
11:27AM 29.4714 -96.2456 43° Northeast 374 430 10,800 -1,260 Descending Houston Center
11:28AM 29.5411 -96.1706 43° Northeast 352 405 10,000 -420 Descending Houston Center
11:29AM 29.5994 -96.0597 59° Northeast 326 375 10,000 -300 Level Houston Center
11:30AM 29.6581 -96.0003 41° Northeast 284 327 9,400 -1,020 Descending Houston Center
11:31AM 29.7133 -95.9461 40° Northeast 263 303 8,000 -1,200 Descending Houston Center
11:32AM 29.7728 -95.8897 39° Northeast 272 313 7,000 -540 Descending Houston Center
11:33AM 29.8394 -95.8278 39° Northeast 280 322 6,900 -840 Descending Houston Center
11:34AM 29.8928 -95.7664 45° Northeast 281 323 5,400 -1,620 Descending Houston Center
11:35AM 29.9353 -95.6769 61° Northeast 271 312 3,500 -1,200 Descending Houston Center
11:36AM 29.9594 -95.6175 65° Northeast 270 311 3,000 -300 Descending Houston Center
11:37AM 29.9939 -95.5269 66° East 262 302 2,900 -660 Descending Houston Center
11:38AM 29.9939 -95.4472 90° East 252 290 1,700 -1,080 Descending Houston Center
11:39AM 29.9919 -95.3978 93° East 142 163 800 -660 Descending Houston Center
11:40AM 29.9931 -95.3439 89° East 170 196 400 -360 Descending Houston Center
11:42AM 29.9833 -95.3333 49° Northeast  Level FlightAware Approximate